sensor_id;sensor_type;location;lat;lon;timestamp;pressure;altitude;pressure_sealevel;temperature;humidity
69574;BME280;62840;52.366;5.980;2022-12-29T00:00:04;99865.63;;;10.58;78.91
69574;BME280;62840;52.366;5.980;2022-12-29T00:02:32;99854.97;;;10.58;78.70
69574;BME280;62840;52.366;5.980;2022-12-29T00:04:58;99864.63;;;10.59;78.76
69574;BME280;62840;52.366;5.980;2022-12-29T00:07:24;99853.81;;;10.61;78.67
69574;BME280;62840;52.366;5.980;2022-12-29T00:09:49;99842.31;;;10.60;78.65
69574;BME280;62840;52.366;5.980;2022-12-29T00:12:15;99845.94;;;10.59;78.68
69574;BME280;62840;52.366;5.980;2022-12-29T00:14:43;99845.94;;;10.59;78.77
69574;BME280;62840;52.366;5.980;2022-12-29T00:17:09;99834.31;;;10.60;78.77
69574;BME280;62840;52.366;5.980;2022-12-29T00:19:35;99820.66;;;10.63;78.73
69574;BME280;62840;52.366;5.980;2022-12-29T00:22:00;99837.81;;;10.61;78.44
69574;BME280;62840;52.366;5.980;2022-12-29T00:24:26;99816.34;;;10.62;78.58
69574;BME280;62840;52.366;5.980;2022-12-29T00:26:53;99825.72;;;10.66;78.55
69574;BME280;62840;52.366;5.980;2022-12-29T00:29:23;99825.53;;;10.68;78.54
69574;BME280;62840;52.366;5.980;2022-12-29T00:31:51;99798.72;;;10.70;78.44
69574;BME280;62840;52.366;5.980;2022-12-29T00:34:17;99817.25;;;10.71;78.23
69574;BME280;62840;52.366;5.980;2022-12-29T00:36:44;99802.78;;;10.74;78.49
69574;BME280;62840;52.366;5.980;2022-12-29T00:39:12;99797.25;;;10.75;78.26
69574;BME280;62840;52.366;5.980;2022-12-29T00:41:40;99798.13;;;10.76;78.16
69574;BME280;62840;52.366;5.980;2022-12-29T00:44:06;99800.78;;;10.76;77.90
69574;BME280;62840;52.366;5.980;2022-12-29T00:46:35;99775.09;;;10.75;78.01
69574;BME280;62840;52.366;5.980;2022-12-29T00:49:05;99783.78;;;10.77;78.21
69574;BME280;62840;52.366;5.980;2022-12-29T00:51:31;99789.13;;;10.77;78.10
69574;BME280;62840;52.366;5.980;2022-12-29T00:53:57;99782.81;;;10.78;78.18
69574;BME280;62840;52.366;5.980;2022-12-29T00:56:23;99771.97;;;10.79;78.04
69574;BME280;62840;52.366;5.980;2022-12-29T00:58:49;99767.50;;;10.80;77.88
69574;BME280;62840;52.366;5.980;2022-12-29T01:01:15;99771.97;;;10.79;78.05
69574;BME280;62840;52.366;5.980;2022-12-29T01:03:41;99762.16;;;10.80;77.77
69574;BME280;62840;52.366;5.980;2022-12-29T01:06:10;99760.16;;;10.82;77.81
69574;BME280;62840;52.366;5.980;2022-12-29T01:08:37;99759.84;;;10.85;77.63
69574;BME280;62840;52.366;5.980;2022-12-29T01:11:06;99748.19;;;10.86;77.63
69574;BME280;62840;52.366;5.980;2022-12-29T01:13:34;99748.91;;;10.88;77.66
69574;BME280;62840;52.366;5.980;2022-12-29T01:16:01;99737.25;;;10.89;77.61
69574;BME280;62840;52.366;5.980;2022-12-29T01:18:27;99745.25;;;10.89;77.68
69574;BME280;62840;52.366;5.980;2022-12-29T01:20:58;99745.25;;;10.89;77.69
69574;BME280;62840;52.366;5.980;2022-12-29T01:23:28;99730.91;;;10.90;77.49
69574;BME280;62840;52.366;5.980;2022-12-29T01:25:54;99742.41;;;10.91;77.42
69574;BME280;62840;52.366;5.980;2022-12-29T01:28:21;99739.91;;;10.89;77.52
69574;BME280;62840;52.366;5.980;2022-12-29T01:30:47;99724.50;;;10.83;77.41
69574;BME280;62840;52.366;5.980;2022-12-29T01:33:13;99718.84;;;10.86;77.59
69574;BME280;62840;52.366;5.980;2022-12-29T01:35:39;99719.84;;;10.85;77.43
69574;BME280;62840;52.366;5.980;2022-12-29T01:38:05;99720.81;;;10.84;77.61
69574;BME280;62840;52.366;5.980;2022-12-29T01:40:33;99722.50;;;10.85;77.64
69574;BME280;62840;52.366;5.980;2022-12-29T01:42:59;99722.50;;;10.85;77.84
69574;BME280;62840;52.366;5.980;2022-12-29T01:45:25;99725.31;;;10.83;77.80
69574;BME280;62840;52.366;5.980;2022-12-29T01:47:53;99726.16;;;10.84;77.80
69574;BME280;62840;52.366;5.980;2022-12-29T01:50:25;99733.47;;;10.82;77.93
69574;BME280;62840;52.366;5.980;2022-12-29T01:52:56;99739.13;;;10.79;78.04
69574;BME280;62840;52.366;5.980;2022-12-29T01:55:26;99725.13;;;10.77;78.22
69574;BME280;62840;52.366;5.980;2022-12-29T01:57:59;99719.91;;;10.75;78.30
69574;BME280;62840;52.366;5.980;2022-12-29T02:00:29;99721.75;;;10.75;78.21
69574;BME280;62840;52.366;5.980;2022-12-29T02:02:55;99721.75;;;10.75;78.31
69574;BME280;62840;52.366;5.980;2022-12-29T02:05:25;99728.78;;;10.76;78.36
69574;BME280;62840;52.366;5.980;2022-12-29T02:07:57;99718.13;;;10.76;78.35
69574;BME280;62840;52.366;5.980;2022-12-29T02:10:26;99722.78;;;10.74;78.34
69574;BME280;62840;52.366;5.980;2022-12-29T02:12:58;99722.91;;;10.72;78.37
69574;BME280;62840;52.366;5.980;2022-12-29T02:15:33;99725.72;;;10.71;78.46
69574;BME280;62840;52.366;5.980;2022-12-29T02:18:20;99729.41;;;10.70;78.49
69574;BME280;62840;52.366;5.980;2022-12-29T02:27:49;99722.69;;;10.65;78.73
69574;BME280;62840;52.366;5.980;2022-12-29T02:30:42;99712.03;;;10.65;78.87
69574;BME280;62840;52.366;5.980;2022-12-29T02:33:26;99726.50;;;10.63;78.88
69574;BME280;62840;52.366;5.980;2022-12-29T02:36:07;99735.53;;;10.62;78.96
69574;BME280;62840;52.366;5.980;2022-12-29T02:38:53;99743.53;;;10.62;78.91
69574;BME280;62840;52.366;5.980;2022-12-29T02:41:33;99733.69;;;10.62;79.01
69574;BME280;62840;52.366;5.980;2022-12-29T02:44:14;99728.34;;;10.62;78.97
69574;BME280;62840;52.366;5.980;2022-12-29T02:46:53;99724.69;;;10.63;79.02
69574;BME280;62840;52.366;5.980;2022-12-29T02:49:28;99736.03;;;10.65;78.88
69574;BME280;62840;52.366;5.980;2022-12-29T02:52:01;99737.72;;;10.66;79.01
69574;BME280;62840;52.366;5.980;2022-12-29T02:54:31;99723.53;;;10.66;78.88
69574;BME280;62840;52.366;5.980;2022-12-29T02:56:57;99729.72;;;10.66;78.87
69574;BME280;62840;52.366;5.980;2022-12-29T02:59:23;99706.69;;;10.65;78.89
69574;BME280;62840;52.366;5.980;2022-12-29T03:02:09;99720.72;;;10.67;78.88
69574;BME280;62840;52.366;5.980;2022-12-29T03:05:12;99718.03;;;10.67;78.81
69574;BME280;62840;52.366;5.980;2022-12-29T03:07:48;99712.84;;;10.66;78.71
69574;BME280;62840;52.366;5.980;2022-12-29T03:10:30;99710.38;;;10.64;78.50
69574;BME280;62840;52.366;5.980;2022-12-29T03:13:13;99701.69;;;10.62;78.54
69574;BME280;62840;52.366;5.980;2022-12-29T03:15:53;99709.00;;;10.60;78.48
69574;BME280;62840;52.366;5.980;2022-12-29T03:18:37;99700.31;;;10.58;78.53
69574;BME280;62840;52.366;5.980;2022-12-29T03:21:13;99705.97;;;10.55;78.39
69574;BME280;62840;52.366;5.980;2022-12-29T03:23:45;99714.94;;;10.54;78.48
69574;BME280;62840;52.366;5.980;2022-12-29T03:26:16;99692.78;;;10.54;78.62
69574;BME280;62840;52.366;5.980;2022-12-29T03:28:46;99702.63;;;10.53;78.38
69574;BME280;62840;52.366;5.980;2022-12-29T03:31:17;99691.97;;;10.53;78.38
69574;BME280;62840;52.366;5.980;2022-12-29T03:33:48;99715.94;;;10.53;78.47
69574;BME280;62840;52.366;5.980;2022-12-29T03:36:20;99720.59;;;10.51;78.25
69574;BME280;62840;52.366;5.980;2022-12-29T03:38:58;99713.56;;;10.50;78.34
69574;BME280;62840;52.366;5.980;2022-12-29T03:41:30;99713.56;;;10.50;78.21
69574;BME280;62840;52.366;5.980;2022-12-29T03:43:58;99706.25;;;10.52;78.21
69574;BME280;62840;52.366;5.980;2022-12-29T03:46:24;99697.28;;;10.53;77.95
69574;BME280;62840;52.366;5.980;2022-12-29T03:48:52;99696.44;;;10.53;77.97
69574;BME280;62840;52.366;5.980;2022-12-29T03:51:18;99691.97;;;10.53;77.80
69574;BME280;62840;52.366;5.980;2022-12-29T03:53:44;99698.25;;;10.52;77.75
69574;BME280;62840;52.366;5.980;2022-12-29T03:56:09;99705.44;;;10.52;77.80
69574;BME280;62840;52.366;5.980;2022-12-29T03:58:35;99688.59;;;10.51;77.71
69574;BME280;62840;52.366;5.980;2022-12-29T04:01:01;99685.09;;;10.51;77.61
69574;BME280;62840;52.366;5.980;2022-12-29T04:03:27;99679.09;;;10.49;77.50
69574;BME280;62840;52.366;5.980;2022-12-29T04:05:55;99700.41;;;10.49;77.53
69574;BME280;62840;52.366;5.980;2022-12-29T04:08:21;99702.41;;;10.46;77.56
69574;BME280;62840;52.366;5.980;2022-12-29T04:10:48;99713.06;;;10.46;77.69
69574;BME280;62840;52.366;5.980;2022-12-29T04:13:13;99713.22;;;10.45;77.73
69574;BME280;62840;52.366;5.980;2022-12-29T04:15:39;99715.88;;;10.45;77.73
69574;BME280;62840;52.366;5.980;2022-12-29T04:18:05;99708.88;;;10.44;77.75
69574;BME280;62840;52.366;5.980;2022-12-29T04:20:30;99713.34;;;10.43;77.67
69574;BME280;62840;52.366;5.980;2022-12-29T04:23:03;99717.84;;;10.43;77.70
69574;BME280;62840;52.366;5.980;2022-12-29T04:25:30;99710.84;;;10.42;77.68
69574;BME280;62840;52.366;5.980;2022-12-29T04:27:56;99719.53;;;10.44;77.93
69574;BME280;62840;52.366;5.980;2022-12-29T04:30:22;99719.53;;;10.44;77.73
69574;BME280;62840;52.366;5.980;2022-12-29T04:32:48;99720.50;;;10.43;77.85
69574;BME280;62840;52.366;5.980;2022-12-29T04:35:14;99721.19;;;10.45;77.68
69574;BME280;62840;52.366;5.980;2022-12-29T04:37:40;99718.41;;;10.46;77.58
69574;BME280;62840;52.366;5.980;2022-12-29T04:40:10;99720.22;;;10.46;77.62
69574;BME280;62840;52.366;5.980;2022-12-29T04:42:37;99723.72;;;10.46;77.56
69574;BME280;62840;52.366;5.980;2022-12-29T04:45:03;99722.91;;;10.46;77.33
69574;BME280;62840;52.366;5.980;2022-12-29T04:47:29;99729.06;;;10.46;77.41
69574;BME280;62840;52.366;5.980;2022-12-29T04:49:55;99733.56;;;10.46;77.42
69574;BME280;62840;52.366;5.980;2022-12-29T04:52:21;99726.53;;;10.45;77.21
69574;BME280;62840;52.366;5.980;2022-12-29T04:54:47;99733.56;;;10.46;77.21
69574;BME280;62840;52.366;5.980;2022-12-29T04:57:15;99729.88;;;10.47;77.29
69574;BME280;62840;52.366;5.980;2022-12-29T04:59:41;99720.88;;;10.48;77.28
69574;BME280;62840;52.366;5.980;2022-12-29T05:02:06;99730.91;;;10.46;76.80
69574;BME280;62840;52.366;5.980;2022-12-29T05:04:32;99719.22;;;10.47;76.73
69574;BME280;62840;52.366;5.980;2022-12-29T05:06:58;99726.53;;;10.45;76.93
69574;BME280;62840;52.366;5.980;2022-12-29T05:09:24;99726.84;;;10.42;76.58
69574;BME280;62840;52.366;5.980;2022-12-29T05:11:49;99718.16;;;10.40;76.74
69574;BME280;62840;52.366;5.980;2022-12-29T05:14:18;99737.81;;;10.39;76.28
69574;BME280;62840;52.366;5.980;2022-12-29T05:16:43;99722.13;;;10.36;76.53
69574;BME280;62840;52.366;5.980;2022-12-29T05:19:09;99727.78;;;10.33;76.52
69574;BME280;62840;52.366;5.980;2022-12-29T05:21:35;99737.06;;;10.29;76.28
69574;BME280;62840;52.366;5.980;2022-12-29T05:24:01;99722.72;;;10.30;76.32
69574;BME280;62840;52.366;5.980;2022-12-29T05:26:26;99717.72;;;10.27;76.02
69574;BME280;62840;52.366;5.980;2022-12-29T05:28:52;99724.03;;;10.25;75.91
69574;BME280;62840;52.366;5.980;2022-12-29T05:31:20;99728.38;;;10.27;76.02
69574;BME280;62840;52.366;5.980;2022-12-29T05:33:46;99735.69;;;10.24;75.60
69574;BME280;62840;52.366;5.980;2022-12-29T05:36:12;99737.66;;;10.22;75.84
69574;BME280;62840;52.366;5.980;2022-12-29T05:38:38;99737.97;;;10.19;76.10
69574;BME280;62840;52.366;5.980;2022-12-29T05:41:04;99731.28;;;10.15;76.08
69574;BME280;62840;52.366;5.980;2022-12-29T05:43:30;99743.22;;;10.11;76.04
69574;BME280;62840;52.366;5.980;2022-12-29T05:45:56;99754.19;;;10.08;76.09
69574;BME280;62840;52.366;5.980;2022-12-29T05:48:25;99744.50;;;10.07;75.89
69574;BME280;62840;52.366;5.980;2022-12-29T05:50:53;99765.81;;;10.07;76.13
69574;BME280;62840;52.366;5.980;2022-12-29T05:53:18;99748.16;;;10.06;75.95
69574;BME280;62840;52.366;5.980;2022-12-29T05:55:46;99758.13;;;10.04;75.90
69574;BME280;62840;52.366;5.980;2022-12-29T05:58:13;99773.09;;;10.05;75.82
69574;BME280;62840;52.366;5.980;2022-12-29T06:00:39;99769.47;;;10.06;75.69
69574;BME280;62840;52.366;5.980;2022-12-29T06:03:05;99789.09;;;10.05;75.66
69574;BME280;62840;52.366;5.980;2022-12-29T06:05:33;99786.72;;;10.02;75.84
69574;BME280;62840;52.366;5.980;2022-12-29T06:07:59;99785.91;;;10.01;75.67
69574;BME280;62840;52.366;5.980;2022-12-29T06:10:25;99799.22;;;10.01;75.78
69574;BME280;62840;52.366;5.980;2022-12-29T06:12:52;99798.34;;;10.01;75.82
69574;BME280;62840;52.366;5.980;2022-12-29T06:15:18;99786.03;;;10.00;75.95
69574;BME280;62840;52.366;5.980;2022-12-29T06:17:44;99795.31;;;9.96;75.85
69574;BME280;62840;52.366;5.980;2022-12-29T06:20:10;99806.28;;;9.93;76.07
69574;BME280;62840;52.366;5.980;2022-12-29T06:22:38;99805.44;;;9.92;76.17
69574;BME280;62840;52.366;5.980;2022-12-29T06:25:05;99802.91;;;9.91;76.39
69574;BME280;62840;52.366;5.980;2022-12-29T06:27:31;99805.72;;;9.89;76.45
69574;BME280;62840;52.366;5.980;2022-12-29T06:29:57;99790.88;;;9.87;76.33
69574;BME280;62840;52.366;5.980;2022-12-29T06:32:22;99797.22;;;9.86;76.51
69574;BME280;62840;52.366;5.980;2022-12-29T06:34:48;99799.00;;;9.85;76.19
69574;BME280;62840;52.366;5.980;2022-12-29T06:37:14;99796.50;;;9.83;76.40
69574;BME280;62840;52.366;5.980;2022-12-29T06:39:42;99811.78;;;9.81;75.87
69574;BME280;62840;52.366;5.980;2022-12-29T06:42:08;99804.63;;;9.82;76.13
69574;BME280;62840;52.366;5.980;2022-12-29T06:44:34;99798.47;;;9.81;76.21
69574;BME280;62840;52.366;5.980;2022-12-29T06:47:00;99819.78;;;9.81;76.16
69574;BME280;62840;52.366;5.980;2022-12-29T06:49:26;99819.09;;;9.79;75.83
69574;BME280;62840;52.366;5.980;2022-12-29T06:51:51;99811.09;;;9.79;75.42
69574;BME280;62840;52.366;5.980;2022-12-29T06:54:17;99816.44;;;9.79;75.53
69574;BME280;62840;52.366;5.980;2022-12-29T06:56:45;99824.28;;;9.81;75.24
69574;BME280;62840;52.366;5.980;2022-12-29T06:59:11;99844.44;;;9.83;75.73
69574;BME280;62840;52.366;5.980;2022-12-29T07:01:37;99821.44;;;9.82;75.29
69574;BME280;62840;52.366;5.980;2022-12-29T07:04:03;99837.72;;;9.79;75.39
69574;BME280;62840;52.366;5.980;2022-12-29T07:06:29;99840.69;;;9.76;75.66
69574;BME280;62840;52.366;5.980;2022-12-29T07:08:54;99842.50;;;9.76;75.94
69574;BME280;62840;52.366;5.980;2022-12-29T07:11:21;99845.31;;;9.74;76.04
69574;BME280;62840;52.366;5.980;2022-12-29T07:13:49;99846.59;;;9.70;76.37
69574;BME280;62840;52.366;5.980;2022-12-29T07:16:15;99838.06;;;9.67;76.02
69574;BME280;62840;52.366;5.980;2022-12-29T07:18:41;99839.88;;;9.66;75.93
69574;BME280;62840;52.366;5.980;2022-12-29T07:21:07;99837.53;;;9.63;75.93
69574;BME280;62840;52.366;5.980;2022-12-29T07:23:33;99839.50;;;9.61;75.90
69574;BME280;62840;52.366;5.980;2022-12-29T07:26:00;99839.50;;;9.61;76.04
69574;BME280;62840;52.366;5.980;2022-12-29T07:28:26;99842.28;;;9.59;76.01
69574;BME280;62840;52.366;5.980;2022-12-29T07:30:54;99848.44;;;9.60;75.93
69574;BME280;62840;52.366;5.980;2022-12-29T07:33:20;99845.78;;;9.60;76.00
69574;BME280;62840;52.366;5.980;2022-12-29T07:35:46;99855.72;;;9.58;76.05
69574;BME280;62840;52.366;5.980;2022-12-29T07:38:12;99831.06;;;9.56;75.86
69574;BME280;62840;52.366;5.980;2022-12-29T07:40:41;99851.41;;;9.57;75.90
69574;BME280;62840;52.366;5.980;2022-12-29T07:43:06;99851.00;;;9.52;75.40
69574;BME280;62840;52.366;5.980;2022-12-29T07:45:32;99849.31;;;9.51;75.45
69574;BME280;62840;52.366;5.980;2022-12-29T07:48:00;99849.63;;;9.48;75.12
69574;BME280;62840;52.366;5.980;2022-12-29T07:50:26;99855.91;;;9.47;75.34
69574;BME280;62840;52.366;5.980;2022-12-29T07:52:52;99865.03;;;9.44;75.39
69574;BME280;62840;52.366;5.980;2022-12-29T07:55:17;99871.47;;;9.41;75.29
69574;BME280;62840;52.366;5.980;2022-12-29T07:57:43;99861.13;;;9.38;75.14
69574;BME280;62840;52.366;5.980;2022-12-29T08:00:10;99857.75;;;9.36;75.01
69574;BME280;62840;52.366;5.980;2022-12-29T08:02:37;99866.72;;;9.35;75.29
69574;BME280;62840;52.366;5.980;2022-12-29T08:05:06;99863.66;;;9.30;75.26
69574;BME280;62840;52.366;5.980;2022-12-29T08:07:32;99863.91;;;9.27;75.18
69574;BME280;62840;52.366;5.980;2022-12-29T08:09:58;99860.56;;;9.25;75.36
69574;BME280;62840;52.366;5.980;2022-12-29T08:12:23;99863.34;;;9.24;75.42
69574;BME280;62840;52.366;5.980;2022-12-29T08:14:49;99863.47;;;9.22;75.50
69574;BME280;62840;52.366;5.980;2022-12-29T08:17:15;99864.19;;;9.24;75.33
69574;BME280;62840;52.366;5.980;2022-12-29T08:19:40;99873.69;;;9.27;75.33
69574;BME280;62840;52.366;5.980;2022-12-29T08:22:09;99865.59;;;9.28;75.38
69574;BME280;62840;52.366;5.980;2022-12-29T08:24:34;99870.91;;;9.28;75.16
69574;BME280;62840;52.366;5.980;2022-12-29T08:27:00;99874.56;;;9.27;75.11
69574;BME280;62840;52.366;5.980;2022-12-29T08:29:26;99858.03;;;9.24;75.17
69574;BME280;62840;52.366;5.980;2022-12-29T08:31:52;99858.88;;;9.24;75.28
69574;BME280;62840;52.366;5.980;2022-12-29T08:34:17;99847.53;;;9.22;75.14
69574;BME280;62840;52.366;5.980;2022-12-29T08:36:43;99855.50;;;9.22;75.17
69574;BME280;62840;52.366;5.980;2022-12-29T08:39:12;99853.53;;;9.24;75.44
69574;BME280;62840;52.366;5.980;2022-12-29T08:41:37;99856.19;;;9.24;75.30
69574;BME280;62840;52.366;5.980;2022-12-29T08:44:03;99853.53;;;9.24;75.44
69574;BME280;62840;52.366;5.980;2022-12-29T08:46:29;99857.19;;;9.23;75.47
69574;BME280;62840;52.366;5.980;2022-12-29T08:48:55;99861.69;;;9.23;75.29
69574;BME280;62840;52.366;5.980;2022-12-29T08:51:21;99862.53;;;9.23;75.09
69574;BME280;62840;52.366;5.980;2022-12-29T08:53:47;99863.91;;;9.27;75.07
69574;BME280;62840;52.366;5.980;2022-12-29T08:56:15;99872.34;;;9.32;75.29
69574;BME280;62840;52.366;5.980;2022-12-29T08:58:41;99867.56;;;9.36;75.09
69574;BME280;62840;52.366;5.980;2022-12-29T09:01:09;99867.28;;;9.39;74.81
69574;BME280;62840;52.366;5.980;2022-12-29T09:03:35;99863.19;;;9.45;74.84
69574;BME280;62840;52.366;5.980;2022-12-29T09:06:01;99863.31;;;9.53;74.89
69574;BME280;62840;52.366;5.980;2022-12-29T09:08:27;99859.41;;;9.57;74.58
69574;BME280;62840;52.366;5.980;2022-12-29T09:10:52;99856.44;;;9.60;74.66
69574;BME280;62840;52.366;5.980;2022-12-29T09:13:21;99866.94;;;9.61;74.37
69574;BME280;62840;52.366;5.980;2022-12-29T09:15:46;99848.88;;;9.65;74.09
69574;BME280;62840;52.366;5.980;2022-12-29T09:18:12;99861.88;;;9.68;74.14
69574;BME280;62840;52.366;5.980;2022-12-29T09:20:38;99871.41;;;9.71;73.82
69574;BME280;62840;52.366;5.980;2022-12-29T09:23:04;99876.72;;;9.71;73.94
69574;BME280;62840;52.366;5.980;2022-12-29T09:25:30;99877.56;;;9.71;74.00
69574;BME280;62840;52.366;5.980;2022-12-29T09:27:55;99886.81;;;9.67;74.07
69574;BME280;62840;52.366;5.980;2022-12-29T09:30:24;99893.13;;;9.66;74.09
69574;BME280;62840;52.366;5.980;2022-12-29T09:32:50;99890.47;;;9.66;74.20
69574;BME280;62840;52.366;5.980;2022-12-29T09:35:16;99885.16;;;9.66;74.20
69574;BME280;62840;52.366;5.980;2022-12-29T09:37:42;99888.81;;;9.65;74.20
69574;BME280;62840;52.366;5.980;2022-12-29T09:40:24;99886.28;;;9.63;73.96
69574;BME280;62840;52.366;5.980;2022-12-29T09:43:05;99894.13;;;9.65;74.31
69574;BME280;62840;52.366;5.980;2022-12-29T09:45:48;99888.25;;;9.61;74.49
69574;BME280;62840;52.366;5.980;2022-12-29T09:48:27;99907.84;;;9.70;74.40
69574;BME280;62840;52.366;5.980;2022-12-29T09:50:58;99906.00;;;9.71;74.23
69574;BME280;62840;52.366;5.980;2022-12-29T09:53:33;99909.81;;;9.68;74.29
69574;BME280;62840;52.366;5.980;2022-12-29T09:56:05;99912.06;;;9.63;74.71
69574;BME280;62840;52.366;5.980;2022-12-29T09:58:41;99914.03;;;9.61;74.96
69574;BME280;62840;52.366;5.980;2022-12-29T10:01:28;99922.97;;;9.60;75.25
69574;BME280;62840;52.366;5.980;2022-12-29T10:03:58;99928.16;;;9.61;75.25
69574;BME280;62840;52.366;5.980;2022-12-29T10:06:29;99933.38;;;9.63;75.25
69574;BME280;62840;52.366;5.980;2022-12-29T10:09:08;99929.69;;;9.64;75.05
69574;BME280;62840;52.366;5.980;2022-12-29T10:11:54;99944.53;;;9.67;75.48
69574;BME280;62840;52.366;5.980;2022-12-29T10:14:50;99946.50;;;9.65;75.54
69574;BME280;62840;52.366;5.980;2022-12-29T10:17:34;99944.28;;;9.60;75.25
69574;BME280;62840;52.366;5.980;2022-12-29T10:20:18;99942.59;;;9.59;75.61
69574;BME280;62840;52.366;5.980;2022-12-29T10:23:14;99961.66;;;9.54;75.69
69574;BME280;62840;52.366;5.980;2022-12-29T10:25:53;99967.25;;;9.51;75.90
69574;BME280;62840;52.366;5.980;2022-12-29T10:28:21;99961.94;;;9.51;76.10
69574;BME280;62840;52.366;5.980;2022-12-29T10:30:50;99977.38;;;9.48;76.15
69574;BME280;62840;52.366;5.980;2022-12-29T10:33:23;99996.97;;;9.47;76.21
69574;BME280;62840;52.366;5.980;2022-12-29T10:35:55;99989.13;;;9.45;76.27
69574;BME280;62840;52.366;5.980;2022-12-29T10:38:26;99984.94;;;9.43;76.29
69574;BME280;62840;52.366;5.980;2022-12-29T10:41:04;99991.94;;;9.44;76.53
69574;BME280;62840;52.366;5.980;2022-12-29T10:43:43;99996.41;;;9.43;76.56
69574;BME280;62840;52.366;5.980;2022-12-29T10:46:14;99999.22;;;9.41;76.69
69574;BME280;62840;52.366;5.980;2022-12-29T10:48:45;99988.56;;;9.41;76.62
69574;BME280;62840;52.366;5.980;2022-12-29T10:51:17;100000.91;;;9.43;76.81
69574;BME280;62840;52.366;5.980;2022-12-29T10:53:49;100016.88;;;9.43;76.78
69574;BME280;62840;52.366;5.980;2022-12-29T10:56:27;100008.19;;;9.40;76.83
69574;BME280;62840;52.366;5.980;2022-12-29T10:59:02;100038.72;;;9.36;77.11
69574;BME280;62840;52.366;5.980;2022-12-29T11:01:49;100019.25;;;9.36;77.25
69574;BME280;62840;52.366;5.980;2022-12-29T11:04:40;100035.06;;;9.37;77.28
69574;BME280;62840;52.366;5.980;2022-12-29T11:07:16;100047.41;;;9.38;77.33
69574;BME280;62840;52.366;5.980;2022-12-29T11:09:45;100037.47;;;9.40;77.28
69574;BME280;62840;52.366;5.980;2022-12-29T11:12:23;100048.53;;;9.46;77.40
69574;BME280;62840;52.366;5.980;2022-12-29T11:15:12;100038.59;;;9.48;77.45
69574;BME280;62840;52.366;5.980;2022-12-29T11:17:44;100049.94;;;9.50;77.52
69574;BME280;62840;52.366;5.980;2022-12-29T11:20:28;100055.97;;;9.52;77.57
69574;BME280;62840;52.366;5.980;2022-12-29T11:22:56;100055.66;;;9.55;77.61
69574;BME280;62840;52.366;5.980;2022-12-29T11:25:22;100058.34;;;9.55;77.71
69574;BME280;62840;52.366;5.980;2022-12-29T11:27:55;100063.66;;;9.55;77.61
69574;BME280;62840;52.366;5.980;2022-12-29T11:30:23;100067.31;;;9.54;77.45
69574;BME280;62840;52.366;5.980;2022-12-29T11:32:54;100070.66;;;9.56;77.45
69574;BME280;62840;52.366;5.980;2022-12-29T11:35:33;100086.63;;;9.56;77.34
69574;BME280;62840;52.366;5.980;2022-12-29T11:38:01;100072.63;;;9.54;77.61
69574;BME280;62840;52.366;5.980;2022-12-29T11:40:29;100085.25;;;9.52;77.49
69574;BME280;62840;52.366;5.980;2022-12-29T11:42:56;100097.84;;;9.50;77.46
69574;BME280;62840;52.366;5.980;2022-12-29T11:45:26;100104.84;;;9.51;77.49
69574;BME280;62840;52.366;5.980;2022-12-29T11:47:57;100105.53;;;9.53;77.74
69574;BME280;62840;52.366;5.980;2022-12-29T11:50:27;100103.88;;;9.52;77.46
69574;BME280;62840;52.366;5.980;2022-12-29T11:53:01;100108.50;;;9.50;77.46
69574;BME280;62840;52.366;5.980;2022-12-29T11:55:30;100104.84;;;9.51;77.72
69574;BME280;62840;52.366;5.980;2022-12-29T11:57:58;100117.19;;;9.52;77.63
69574;BME280;62840;52.366;5.980;2022-12-29T12:00:30;100113.53;;;9.53;77.60
69574;BME280;62840;52.366;5.980;2022-12-29T12:03:02;100118.56;;;9.56;77.71
69574;BME280;62840;52.366;5.980;2022-12-29T12:05:37;100107.38;;;9.62;77.86
69574;BME280;62840;52.366;5.980;2022-12-29T12:08:11;100114.81;;;9.68;78.05
69574;BME280;62840;52.366;5.980;2022-12-29T12:10:44;100111.59;;;9.74;77.96
69574;BME280;62840;52.366;5.980;2022-12-29T12:13:19;100100.38;;;9.80;77.52
69574;BME280;62840;52.366;5.980;2022-12-29T12:15:56;100113.53;;;9.82;77.65
69574;BME280;62840;52.366;5.980;2022-12-29T12:18:44;100110.88;;;9.82;77.37
69574;BME280;62840;52.366;5.980;2022-12-29T12:21:22;100105.69;;;9.80;77.61
69574;BME280;62840;52.366;5.980;2022-12-29T12:24:02;100116.34;;;9.80;77.67
69574;BME280;62840;52.366;5.980;2022-12-29T12:26:55;100118.31;;;9.78;77.39
69574;BME280;62840;52.366;5.980;2022-12-29T12:29:32;100121.97;;;9.77;77.30
69574;BME280;62840;52.366;5.980;2022-12-29T12:32:11;100123.63;;;9.78;77.38
69574;BME280;62840;52.366;5.980;2022-12-29T12:34:44;100128.94;;;9.78;77.26
69574;BME280;62840;52.366;5.980;2022-12-29T12:37:46;100138.63;;;9.79;77.07
69574;BME280;62840;52.366;5.980;2022-12-29T12:40:35;100132.59;;;9.77;77.21
69574;BME280;62840;52.366;5.980;2022-12-29T12:43:24;100130.66;;;9.79;77.30
69574;BME280;62840;52.366;5.980;2022-12-29T12:46:18;100137.66;;;9.80;77.43
69574;BME280;62840;52.366;5.980;2022-12-29T12:49:16;100142.72;;;9.83;77.19
69574;BME280;62840;52.366;5.980;2022-12-29T12:52:05;100138.50;;;9.81;77.08
69574;BME280;62840;52.366;5.980;2022-12-29T12:54:59;100138.63;;;9.79;76.95
69574;BME280;62840;52.366;5.980;2022-12-29T12:57:47;100132.59;;;9.77;77.09
69574;BME280;62840;52.366;5.980;2022-12-29T13:00:20;100145.22;;;9.75;76.97
69574;BME280;62840;52.366;5.980;2022-12-29T13:03:02;100143.56;;;9.74;76.93
69574;BME280;62840;52.366;5.980;2022-12-29T13:05:57;100148.16;;;9.72;76.85
69574;BME280;62840;52.366;5.980;2022-12-29T13:08:52;100160.06;;;9.68;76.92
69574;BME280;62840;52.366;5.980;2022-12-29T13:11:51;100168.75;;;9.60;76.90
69574;BME280;62840;52.366;5.980;2022-12-29T13:14:40;100167.19;;;9.58;76.96
69574;BME280;62840;52.366;5.980;2022-12-29T13:17:23;100171.81;;;9.56;76.79
69574;BME280;62840;52.366;5.980;2022-12-29T13:20:06;100168.47;;;9.54;76.82
69574;BME280;62840;52.366;5.980;2022-12-29T13:22:50;100179.94;;;9.54;76.79
69574;BME280;62840;52.366;5.980;2022-12-29T13:25:29;100173.78;;;9.54;76.70
69574;BME280;62840;52.366;5.980;2022-12-29T13:28:10;100191.44;;;9.55;76.47
69574;BME280;62840;52.366;5.980;2022-12-29T13:30:46;100188.66;;;9.56;76.36